sensor_id;sensor_type;location;lat;lon;timestamp;P1;durP1;ratioP1;P2;durP2;ratioP2
3643;SDS011;1838;50.742;7.158;2023-08-01T00:02:26;3.40;;;1.30;;
3643;SDS011;1838;50.742;7.158;2023-08-01T00:04:51;2.63;;;1.20;;
3643;SDS011;1838;50.742;7.158;2023-08-01T00:07:17;2.23;;;1.40;;
3643;SDS011;1838;50.742;7.158;2023-08-01T00:09:42;1.80;;;1.23;;
3643;SDS011;1838;50.742;7.158;2023-08-01T00:12:08;2.13;;;1.07;;
3643;SDS011;1838;50.742;7.158;2023-08-01T00:14:35;4.60;;;0.90;;
3643;SDS011;1838;50.742;7.158;2023-08-01T00:17:00;2.00;;;1.33;;
3643;SDS011;1838;50.742;7.158;2023-08-01T00:19:27;1.97;;;1.00;;
3643;SDS011;1838;50.742;7.158;2023-08-01T00:21:52;4.83;;;1.10;;
3643;SDS011;1838;50.742;7.158;2023-08-01T00:24:18;3.13;;;1.23;;
3643;SDS011;1838;50.742;7.158;2023-08-01T00:26:43;2.77;;;1.07;;
3643;SDS011;1838;50.742;7.158;2023-08-01T00:29:09;1.60;;;0.90;;
3643;SDS011;1838;50.742;7.158;2023-08-01T00:31:34;1.80;;;1.03;;
3643;SDS011;1838;50.742;7.158;2023-08-01T00:34:00;1.80;;;0.90;;
3643;SDS011;1838;50.742;7.158;2023-08-01T00:36:25;3.50;;;1.30;;
3643;SDS011;1838;50.742;7.158;2023-08-01T00:38:51;2.17;;;0.90;;
3643;SDS011;1838;50.742;7.158;2023-08-01T00:41:16;3.10;;;1.00;;
3643;SDS011;1838;50.742;7.158;2023-08-01T00:43:42;2.63;;;1.07;;
3643;SDS011;1838;50.742;7.158;2023-08-01T00:46:08;5.20;;;1.10;;
3643;SDS011;1838;50.742;7.158;2023-08-01T00:48:34;1.93;;;1.10;;
3643;SDS011;1838;50.742;7.158;2023-08-01T00:51:01;1.73;;;0.93;;
3643;SDS011;1838;50.742;7.158;2023-08-01T00:53:30;3.00;;;1.10;;
3643;SDS011;1838;50.742;7.158;2023-08-01T00:55:56;2.33;;;1.07;;
3643;SDS011;1838;50.742;7.158;2023-08-01T00:58:22;1.90;;;1.00;;
3643;SDS011;1838;50.742;7.158;2023-08-01T01:00:48;1.33;;;0.77;;
3643;SDS011;1838;50.742;7.158;2023-08-01T01:03:14;1.90;;;1.00;;
3643;SDS011;1838;50.742;7.158;2023-08-01T01:05:40;2.50;;;0.70;;
3643;SDS011;1838;50.742;7.158;2023-08-01T01:08:12;2.07;;;1.10;;
3643;SDS011;1838;50.742;7.158;2023-08-01T01:10:38;2.03;;;1.00;;
3643;SDS011;1838;50.742;7.158;2023-08-01T01:13:04;2.63;;;0.90;;
3643;SDS011;1838;50.742;7.158;2023-08-01T01:15:29;2.03;;;0.70;;
3643;SDS011;1838;50.742;7.158;2023-08-01T01:17:55;2.10;;;1.00;;
3643;SDS011;1838;50.742;7.158;2023-08-01T01:20:22;2.00;;;1.30;;
3643;SDS011;1838;50.742;7.158;2023-08-01T01:22:49;1.40;;;0.90;;
3643;SDS011;1838;50.742;7.158;2023-08-01T01:25:17;1.70;;;0.93;;
3643;SDS011;1838;50.742;7.158;2023-08-01T01:27:45;1.93;;;0.87;;
3643;SDS011;1838;50.742;7.158;2023-08-01T01:30:12;3.47;;;1.17;;
3643;SDS011;1838;50.742;7.158;2023-08-01T01:32:37;3.53;;;1.03;;
3643;SDS011;1838;50.742;7.158;2023-08-01T01:35:04;2.73;;;0.80;;
3643;SDS011;1838;50.742;7.158;2023-08-01T01:37:30;2.07;;;1.00;;
3643;SDS011;1838;50.742;7.158;2023-08-01T01:39:55;2.00;;;0.90;;
3643;SDS011;1838;50.742;7.158;2023-08-01T01:42:21;2.23;;;1.10;;
3643;SDS011;1838;50.742;7.158;2023-08-01T01:44:46;6.20;;;1.10;;
3643;SDS011;1838;50.742;7.158;2023-08-01T01:47:12;1.90;;;1.17;;
3643;SDS011;1838;50.742;7.158;2023-08-01T01:49:37;1.60;;;0.87;;
3643;SDS011;1838;50.742;7.158;2023-08-01T01:52:03;2.27;;;1.00;;
3643;SDS011;1838;50.742;7.158;2023-08-01T01:54:29;1.77;;;1.00;;
3643;SDS011;1838;50.742;7.158;2023-08-01T01:56:54;2.13;;;1.23;;
3643;SDS011;1838;50.742;7.158;2023-08-01T01:59:20;1.60;;;1.00;;
3643;SDS011;1838;50.742;7.158;2023-08-01T02:01:45;1.80;;;1.10;;
3643;SDS011;1838;50.742;7.158;2023-08-01T02:04:11;2.73;;;1.27;;
3643;SDS011;1838;50.742;7.158;2023-08-01T02:06:36;1.60;;;0.90;;
3643;SDS011;1838;50.742;7.158;2023-08-01T02:09:02;3.00;;;1.20;;
3643;SDS011;1838;50.742;7.158;2023-08-01T02:11:28;2.23;;;0.97;;
3643;SDS011;1838;50.742;7.158;2023-08-01T02:13:54;2.97;;;0.83;;
3643;SDS011;1838;50.742;7.158;2023-08-01T02:16:19;1.53;;;0.67;;
3643;SDS011;1838;50.742;7.158;2023-08-01T02:18:45;1.30;;;0.60;;
3643;SDS011;1838;50.742;7.158;2023-08-01T02:21:10;1.40;;;0.70;;
3643;SDS011;1838;50.742;7.158;2023-08-01T02:23:36;1.80;;;0.80;;
3643;SDS011;1838;50.742;7.158;2023-08-01T02:26:02;3.97;;;0.90;;
3643;SDS011;1838;50.742;7.158;2023-08-01T02:28:28;1.70;;;0.90;;
3643;SDS011;1838;50.742;7.158;2023-08-01T02:30:53;1.87;;;0.80;;
3643;SDS011;1838;50.742;7.158;2023-08-01T02:33:19;1.83;;;0.70;;
3643;SDS011;1838;50.742;7.158;2023-08-01T02:35:45;7.43;;;1.10;;
3643;SDS011;1838;50.742;7.158;2023-08-01T02:38:11;1.80;;;0.70;;
3643;SDS011;1838;50.742;7.158;2023-08-01T02:40:37;2.43;;;0.67;;
3643;SDS011;1838;50.742;7.158;2023-08-01T02:43:02;1.67;;;0.60;;
3643;SDS011;1838;50.742;7.158;2023-08-01T02:45:28;1.30;;;0.53;;
3643;SDS011;1838;50.742;7.158;2023-08-01T02:47:53;1.53;;;0.60;;
3643;SDS011;1838;50.742;7.158;2023-08-01T02:50:19;1.67;;;0.60;;
3643;SDS011;1838;50.742;7.158;2023-08-01T02:52:44;1.83;;;0.87;;
3643;SDS011;1838;50.742;7.158;2023-08-01T02:55:10;1.63;;;1.07;;
3643;SDS011;1838;50.742;7.158;2023-08-01T02:57:36;1.40;;;0.73;;
3643;SDS011;1838;50.742;7.158;2023-08-01T03:00:02;1.50;;;0.90;;
3643;SDS011;1838;50.742;7.158;2023-08-01T03:02:30;1.90;;;1.03;;
3643;SDS011;1838;50.742;7.158;2023-08-01T03:04:56;1.70;;;0.83;;
3643;SDS011;1838;50.742;7.158;2023-08-01T03:07:21;1.90;;;1.00;;
3643;SDS011;1838;50.742;7.158;2023-08-01T03:09:47;1.60;;;1.00;;
3643;SDS011;1838;50.742;7.158;2023-08-01T03:12:13;1.70;;;1.10;;
3643;SDS011;1838;50.742;7.158;2023-08-01T03:14:38;1.43;;;0.90;;
3643;SDS011;1838;50.742;7.158;2023-08-01T03:17:06;2.77;;;1.00;;
3643;SDS011;1838;50.742;7.158;2023-08-01T03:19:33;3.40;;;1.20;;
3643;SDS011;1838;50.742;7.158;2023-08-01T03:21:58;5.17;;;1.00;;
3643;SDS011;1838;50.742;7.158;2023-08-01T03:24:25;1.53;;;0.90;;
3643;SDS011;1838;50.742;7.158;2023-08-01T03:26:50;1.80;;;1.00;;
3643;SDS011;1838;50.742;7.158;2023-08-01T03:29:16;4.70;;;1.00;;
3643;SDS011;1838;50.742;7.158;2023-08-01T03:31:41;1.90;;;1.30;;
3643;SDS011;1838;50.742;7.158;2023-08-01T03:34:07;3.20;;;1.57;;
3643;SDS011;1838;50.742;7.158;2023-08-01T03:36:33;4.03;;;1.03;;
3643;SDS011;1838;50.742;7.158;2023-08-01T03:38:59;2.50;;;1.20;;
3643;SDS011;1838;50.742;7.158;2023-08-01T03:41:25;9.00;;;1.40;;
3643;SDS011;1838;50.742;7.158;2023-08-01T03:43:50;4.80;;;2.07;;
3643;SDS011;1838;50.742;7.158;2023-08-01T03:46:16;4.47;;;1.33;;
3643;SDS011;1838;50.742;7.158;2023-08-01T03:48:41;2.43;;;1.30;;
3643;SDS011;1838;50.742;7.158;2023-08-01T03:51:08;3.20;;;1.33;;
3643;SDS011;1838;50.742;7.158;2023-08-01T03:53:33;2.27;;;1.60;;
3643;SDS011;1838;50.742;7.158;2023-08-01T03:55:59;2.17;;;1.63;;
3643;SDS011;1838;50.742;7.158;2023-08-01T03:58:24;3.10;;;1.50;;
3643;SDS011;1838;50.742;7.158;2023-08-01T04:00:50;1.80;;;1.43;;
3643;SDS011;1838;50.742;7.158;2023-08-01T04:03:15;2.57;;;1.80;;
3643;SDS011;1838;50.742;7.158;2023-08-01T04:05:41;3.40;;;1.57;;
3643;SDS011;1838;50.742;7.158;2023-08-01T04:08:07;3.10;;;1.60;;
3643;SDS011;1838;50.742;7.158;2023-08-01T04:10:32;4.90;;;1.90;;
3643;SDS011;1838;50.742;7.158;2023-08-01T04:12:57;2.73;;;1.63;;
3643;SDS011;1838;50.742;7.158;2023-08-01T04:15:23;4.17;;;1.70;;
3643;SDS011;1838;50.742;7.158;2023-08-01T04:17:48;4.70;;;2.07;;
3643;SDS011;1838;50.742;7.158;2023-08-01T04:20:14;3.00;;;2.07;;
3643;SDS011;1838;50.742;7.158;2023-08-01T04:22:40;5.83;;;2.17;;
3643;SDS011;1838;50.742;7.158;2023-08-01T04:25:05;5.00;;;2.63;;
3643;SDS011;1838;50.742;7.158;2023-08-01T04:27:31;5.30;;;2.40;;
3643;SDS011;1838;50.742;7.158;2023-08-01T04:29:57;2.90;;;2.27;;
3643;SDS011;1838;50.742;7.158;2023-08-01T04:32:23;6.40;;;2.97;;
3643;SDS011;1838;50.742;7.158;2023-08-01T04:34:48;4.10;;;2.63;;
3643;SDS011;1838;50.742;7.158;2023-08-01T04:37:14;22.23;;;3.30;;
3643;SDS011;1838;50.742;7.158;2023-08-01T04:39:40;3.13;;;2.70;;
3643;SDS011;1838;50.742;7.158;2023-08-01T04:42:05;8.13;;;2.93;;
3643;SDS011;1838;50.742;7.158;2023-08-01T04:44:31;5.43;;;3.00;;
3643;SDS011;1838;50.742;7.158;2023-08-01T04:46:57;5.50;;;3.60;;
3643;SDS011;1838;50.742;7.158;2023-08-01T04:49:22;8.43;;;4.00;;
3643;SDS011;1838;50.742;7.158;2023-08-01T04:51:49;3.97;;;3.57;;
3643;SDS011;1838;50.742;7.158;2023-08-01T04:54:15;6.13;;;4.17;;
3643;SDS011;1838;50.742;7.158;2023-08-01T04:56:41;8.07;;;4.23;;
3643;SDS011;1838;50.742;7.158;2023-08-01T04:59:06;4.90;;;4.07;;
3643;SDS011;1838;50.742;7.158;2023-08-01T05:01:32;6.10;;;4.07;;
3643;SDS011;1838;50.742;7.158;2023-08-01T05:03:58;6.20;;;3.93;;
3643;SDS011;1838;50.742;7.158;2023-08-01T05:06:23;4.10;;;3.70;;
3643;SDS011;1838;50.742;7.158;2023-08-01T05:08:49;8.90;;;4.13;;
3643;SDS011;1838;50.742;7.158;2023-08-01T05:11:14;4.50;;;3.43;;
3643;SDS011;1838;50.742;7.158;2023-08-01T05:13:40;8.87;;;4.03;;
3643;SDS011;1838;50.742;7.158;2023-08-01T05:16:05;4.93;;;3.97;;
3643;SDS011;1838;50.742;7.158;2023-08-01T05:18:31;12.80;;;5.33;;
3643;SDS011;1838;50.742;7.158;2023-08-01T05:20:57;8.60;;;3.80;;
3643;SDS011;1838;50.742;7.158;2023-08-01T05:23:22;6.20;;;3.13;;
3643;SDS011;1838;50.742;7.158;2023-08-01T05:25:48;9.07;;;4.17;;
3643;SDS011;1838;50.742;7.158;2023-08-01T05:28:13;11.03;;;4.67;;
3643;SDS011;1838;50.742;7.158;2023-08-01T05:30:40;14.27;;;4.63;;
3643;SDS011;1838;50.742;7.158;2023-08-01T05:33:05;16.63;;;4.57;;
3643;SDS011;1838;50.742;7.158;2023-08-01T05:35:31;4.47;;;3.90;;
3643;SDS011;1838;50.742;7.158;2023-08-01T05:37:56;10.73;;;4.40;;
3643;SDS011;1838;50.742;7.158;2023-08-01T05:40:22;4.80;;;4.03;;
3643;SDS011;1838;50.742;7.158;2023-08-01T05:42:47;6.53;;;4.00;;
3643;SDS011;1838;50.742;7.158;2023-08-01T05:45:13;10.03;;;5.03;;
3643;SDS011;1838;50.742;7.158;2023-08-01T05:47:39;9.77;;;4.50;;
3643;SDS011;1838;50.742;7.158;2023-08-01T05:50:05;7.67;;;4.80;;
3643;SDS011;1838;50.742;7.158;2023-08-01T05:52:32;11.10;;;4.67;;
3643;SDS011;1838;50.742;7.158;2023-08-01T05:54:58;5.80;;;4.37;;
3643;SDS011;1838;50.742;7.158;2023-08-01T05:57:24;5.23;;;4.40;;
3643;SDS011;1838;50.742;7.158;2023-08-01T05:59:49;5.37;;;3.53;;
3643;SDS011;1838;50.742;7.158;2023-08-01T06:02:15;5.03;;;3.93;;
3643;SDS011;1838;50.742;7.158;2023-08-01T06:04:40;5.63;;;4.03;;
3643;SDS011;1838;50.742;7.158;2023-08-01T06:07:06;5.50;;;3.67;;
3643;SDS011;1838;50.742;7.158;2023-08-01T06:09:31;6.53;;;3.60;;
3643;SDS011;1838;50.742;7.158;2023-08-01T06:11:57;9.37;;;4.57;;
3643;SDS011;1838;50.742;7.158;2023-08-01T06:14:23;9.23;;;4.10;;
3643;SDS011;1838;50.742;7.158;2023-08-01T06:16:49;6.97;;;4.33;;
3643;SDS011;1838;50.742;7.158;2023-08-01T06:19:15;5.47;;;3.23;;
3643;SDS011;1838;50.742;7.158;2023-08-01T06:21:40;5.30;;;3.97;;
3643;SDS011;1838;50.742;7.158;2023-08-01T06:24:06;5.20;;;4.40;;
3643;SDS011;1838;50.742;7.158;2023-08-01T06:26:32;5.70;;;3.67;;
3643;SDS011;1838;50.742;7.158;2023-08-01T06:28:58;7.37;;;3.43;;
3643;SDS011;1838;50.742;7.158;2023-08-01T06:31:23;7.13;;;3.20;;
3643;SDS011;1838;50.742;7.158;2023-08-01T06:33:49;6.63;;;3.53;;
3643;SDS011;1838;50.742;7.158;2023-08-01T06:36:14;5.17;;;3.37;;
3643;SDS011;1838;50.742;7.158;2023-08-01T06:38:42;6.40;;;3.63;;
3643;SDS011;1838;50.742;7.158;2023-08-01T06:41:07;4.03;;;3.00;;
3643;SDS011;1838;50.742;7.158;2023-08-01T06:43:33;7.30;;;3.67;;
3643;SDS011;1838;50.742;7.158;2023-08-01T06:45:58;5.80;;;3.40;;
3643;SDS011;1838;50.742;7.158;2023-08-01T06:48:24;8.07;;;3.70;;
3643;SDS011;1838;50.742;7.158;2023-08-01T06:50:50;5.63;;;3.53;;
3643;SDS011;1838;50.742;7.158;2023-08-01T06:53:16;5.50;;;3.40;;
3643;SDS011;1838;50.742;7.158;2023-08-01T06:55:41;5.57;;;4.33;;
3643;SDS011;1838;50.742;7.158;2023-08-01T06:58:07;9.90;;;4.10;;
3643;SDS011;1838;50.742;7.158;2023-08-01T07:00:32;6.57;;;3.70;;
3643;SDS011;1838;50.742;7.158;2023-08-01T07:02:58;8.43;;;3.90;;
3643;SDS011;1838;50.742;7.158;2023-08-01T07:05:23;8.90;;;4.30;;
3643;SDS011;1838;50.742;7.158;2023-08-01T07:07:49;8.23;;;3.37;;
3643;SDS011;1838;50.742;7.158;2023-08-01T07:10:15;5.67;;;3.70;;
3643;SDS011;1838;50.742;7.158;2023-08-01T07:12:40;7.57;;;4.30;;
3643;SDS011;1838;50.742;7.158;2023-08-01T07:15:06;7.83;;;3.40;;
3643;SDS011;1838;50.742;7.158;2023-08-01T07:17:32;10.90;;;3.40;;
3643;SDS011;1838;50.742;7.158;2023-08-01T07:19:58;5.90;;;3.67;;
3643;SDS011;1838;50.742;7.158;2023-08-01T07:22:23;5.87;;;3.97;;
3643;SDS011;1838;50.742;7.158;2023-08-01T07:24:52;7.23;;;3.80;;
3643;SDS011;1838;50.742;7.158;2023-08-01T07:27:19;4.63;;;3.50;;
3643;SDS011;1838;50.742;7.158;2023-08-01T07:29:44;5.80;;;4.10;;
3643;SDS011;1838;50.742;7.158;2023-08-01T07:32:10;9.50;;;4.80;;
3643;SDS011;1838;50.742;7.158;2023-08-01T07:34:35;7.77;;;4.53;;
3643;SDS011;1838;50.742;7.158;2023-08-01T07:37:01;8.70;;;4.20;;
3643;SDS011;1838;50.742;7.158;2023-08-01T07:39:27;6.90;;;4.80;;
3643;SDS011;1838;50.742;7.158;2023-08-01T07:41:52;10.93;;;4.20;;
3643;SDS011;1838;50.742;7.158;2023-08-01T07:44:17;4.83;;;3.70;;
3643;SDS011;1838;50.742;7.158;2023-08-01T07:46:43;7.73;;;4.87;;
3643;SDS011;1838;50.742;7.158;2023-08-01T07:49:08;5.47;;;4.73;;
3643;SDS011;1838;50.742;7.158;2023-08-01T07:51:34;5.37;;;4.50;;
3643;SDS011;1838;50.742;7.158;2023-08-01T07:54:00;10.00;;;5.17;;
3643;SDS011;1838;50.742;7.158;2023-08-01T07:56:25;6.33;;;4.27;;
3643;SDS011;1838;50.742;7.158;2023-08-01T07:58:51;6.70;;;4.30;;
3643;SDS011;1838;50.742;7.158;2023-08-01T08:01:16;7.67;;;3.97;;
3643;SDS011;1838;50.742;7.158;2023-08-01T08:03:42;5.20;;;4.63;;
3643;SDS011;1838;50.742;7.158;2023-08-01T08:06:07;4.50;;;3.03;;
3643;SDS011;1838;50.742;7.158;2023-08-01T08:08:33;4.80;;;3.27;;
3643;SDS011;1838;50.742;7.158;2023-08-01T08:10:59;7.10;;;3.90;;
3643;SDS011;1838;50.742;7.158;2023-08-01T08:13:26;5.03;;;3.77;;
3643;SDS011;1838;50.742;7.158;2023-08-01T08:15:51;5.33;;;4.00;;
3643;SDS011;1838;50.742;7.158;2023-08-01T08:18:17;7.97;;;4.13;;
3643;SDS011;1838;50.742;7.158;2023-08-01T08:20:44;6.10;;;4.10;;
3643;SDS011;1838;50.742;7.158;2023-08-01T08:23:11;7.00;;;3.87;;
3643;SDS011;1838;50.742;7.158;2023-08-01T08:25:39;4.70;;;3.43;;
3643;SDS011;1838;50.742;7.158;2023-08-01T08:28:04;4.97;;;4.03;;
3643;SDS011;1838;50.742;7.158;2023-08-01T08:30:30;7.10;;;4.83;;
3643;SDS011;1838;50.742;7.158;2023-08-01T08:32:57;9.57;;;4.70;;
3643;SDS011;1838;50.742;7.158;2023-08-01T08:35:22;13.33;;;4.90;;
3643;SDS011;1838;50.742;7.158;2023-08-01T08:37:48;7.70;;;4.40;;
3643;SDS011;1838;50.742;7.158;2023-08-01T08:40:14;11.77;;;4.67;;
3643;SDS011;1838;50.742;7.158;2023-08-01T08:42:39;9.50;;;4.90;;
3643;SDS011;1838;50.742;7.158;2023-08-01T08:45:05;10.90;;;5.23;;
3643;SDS011;1838;50.742;7.158;2023-08-01T08:47:32;12.03;;;5.17;;
3643;SDS011;1838;50.742;7.158;2023-08-01T08:50:01;8.53;;;4.53;;
3643;SDS011;1838;50.742;7.158;2023-08-01T08:52:27;8.27;;;4.83;;
3643;SDS011;1838;50.742;7.158;2023-08-01T08:54:52;14.50;;;5.63;;
3643;SDS011;1838;50.742;7.158;2023-08-01T08:57:20;14.07;;;4.60;;
3643;SDS011;1838;50.742;7.158;2023-08-01T08:59:46;7.17;;;4.00;;
3643;SDS011;1838;50.742;7.158;2023-08-01T09:02:13;9.73;;;4.53;;
3643;SDS011;1838;50.742;7.158;2023-08-01T09:04:41;8.00;;;4.17;;
3643;SDS011;1838;50.742;7.158;2023-08-01T09:07:07;4.70;;;3.53;;
3643;SDS011;1838;50.742;7.158;2023-08-01T09:09:36;4.00;;;2.93;;
3643;SDS011;1838;50.742;7.158;2023-08-01T09:12:01;4.80;;;3.30;;
3643;SDS011;1838;50.742;7.158;2023-08-01T09:14:27;6.40;;;3.87;;
3643;SDS011;1838;50.742;7.158;2023-08-01T09:16:54;13.23;;;3.90;;
3643;SDS011;1838;50.742;7.158;2023-08-01T09:19:21;5.73;;;3.70;;
3643;SDS011;1838;50.742;7.158;2023-08-01T09:21:48;5.10;;;3.50;;
3643;SDS011;1838;50.742;7.158;2023-08-01T09:24:19;8.33;;;3.53;;
3643;SDS011;1838;50.742;7.158;2023-08-01T09:26:46;4.70;;;3.70;;
3643;SDS011;1838;50.742;7.158;2023-08-01T09:29:13;6.23;;;3.17;;
3643;SDS011;1838;50.742;7.158;2023-08-01T09:31:41;5.80;;;3.23;;
3643;SDS011;1838;50.742;7.158;2023-08-01T09:34:23;3.50;;;3.00;;
3643;SDS011;1838;50.742;7.158;2023-08-01T09:36:50;10.10;;;3.53;;
3643;SDS011;1838;50.742;7.158;2023-08-01T09:39:17;4.67;;;3.40;;
3643;SDS011;1838;50.742;7.158;2023-08-01T09:41:44;8.80;;;3.40;;
3643;SDS011;1838;50.742;7.158;2023-08-01T09:44:11;7.27;;;3.93;;
3643;SDS011;1838;50.742;7.158;2023-08-01T09:46:37;7.00;;;3.23;;
3643;SDS011;1838;50.742;7.158;2023-08-01T09:49:09;3.60;;;2.80;;
3643;SDS011;1838;50.742;7.158;2023-08-01T09:51:45;8.33;;;3.20;;
3643;SDS011;1838;50.742;7.158;2023-08-01T09:54:15;3.40;;;2.90;;
3643;SDS011;1838;50.742;7.158;2023-08-01T09:56:45;4.47;;;2.30;;
3643;SDS011;1838;50.742;7.158;2023-08-01T09:59:13;3.20;;;2.40;;
3643;SDS011;1838;50.742;7.158;2023-08-01T10:01:44;5.70;;;2.90;;
3643;SDS011;1838;50.742;7.158;2023-08-01T10:04:11;6.33;;;2.30;;
3643;SDS011;1838;50.742;7.158;2023-08-01T10:06:37;6.00;;;2.70;;
3643;SDS011;1838;50.742;7.158;2023-08-01T10:09:06;4.33;;;2.93;;
3643;SDS011;1838;50.742;7.158;2023-08-01T10:11:35;8.63;;;2.40;;
3643;SDS011;1838;50.742;7.158;2023-08-01T10:14:03;4.63;;;2.93;;
3643;SDS011;1838;50.742;7.158;2023-08-01T10:16:29;4.53;;;2.50;;
3643;SDS011;1838;50.742;7.158;2023-08-01T10:18:55;6.73;;;2.63;;
3643;SDS011;1838;50.742;7.158;2023-08-01T10:21:23;7.23;;;2.50;;
3643;SDS011;1838;50.742;7.158;2023-08-01T10:23:49;3.67;;;2.63;;
3643;SDS011;1838;50.742;7.158;2023-08-01T10:26:14;4.67;;;3.50;;
3643;SDS011;1838;50.742;7.158;2023-08-01T10:28:48;5.27;;;3.07;;
3643;SDS011;1838;50.742;7.158;2023-08-01T10:31:16;7.23;;;3.17;;
3643;SDS011;1838;50.742;7.158;2023-08-01T10:33:43;3.00;;;2.60;;
3643;SDS011;1838;50.742;7.158;2023-08-01T10:38:48;5.80;;;2.90;;
3643;SDS011;1838;50.742;7.158;2023-08-01T10:41:32;4.33;;;2.87;;
3643;SDS011;1838;50.742;7.158;2023-08-01T10:46:51;4.40;;;3.13;;
3643;SDS011;1838;50.742;7.158;2023-08-01T10:49:19;4.17;;;2.40;;
3643;SDS011;1838;50.742;7.158;2023-08-01T10:51:46;5.90;;;2.60;;
3643;SDS011;1838;50.742;7.158;2023-08-01T10:54:18;3.53;;;2.57;;
3643;SDS011;1838;50.742;7.158;2023-08-01T10:56:49;3.40;;;2.73;;
3643;SDS011;1838;50.742;7.158;2023-08-01T10:59:17;3.00;;;2.27;;
3643;SDS011;1838;50.742;7.158;2023-08-01T11:01:47;4.40;;;2.50;;
3643;SDS011;1838;50.742;7.158;2023-08-01T11:04:18;4.53;;;2.37;;
3643;SDS011;1838;50.742;7.158;2023-08-01T11:06:47;3.90;;;2.47;;
3643;SDS011;1838;50.742;7.158;2023-08-01T11:09:24;3.80;;;2.30;;
3643;SDS011;1838;50.742;7.158;2023-08-01T11:11:52;5.33;;;3.00;;
3643;SDS011;1838;50.742;7.158;2023-08-01T11:14:23;5.73;;;2.60;;
3643;SDS011;1838;50.742;7.158;2023-08-01T11:16:56;3.70;;;2.20;;
3643;SDS011;1838;50.742;7.158;2023-08-01T11:19:23;6.63;;;2.87;;
3643;SDS011;1838;50.742;7.158;2023-08-01T11:21:49;5.10;;;2.70;;
3643;SDS011;1838;50.742;7.158;2023-08-01T11:24:17;5.47;;;2.40;;
3643;SDS011;1838;50.742;7.158;2023-08-01T11:26:44;5.73;;;2.50;;
3643;SDS011;1838;50.742;7.158;2023-08-01T11:29:11;3.30;;;2.50;;
3643;SDS011;1838;50.742;7.158;2023-08-01T11:31:37;2.90;;;2.43;;
3643;SDS011;1838;50.742;7.158;2023-08-01T11:34:03;4.50;;;2.00;;
3643;SDS011;1838;50.742;7.158;2023-08-01T11:36:29;5.60;;;3.40;;
3643;SDS011;1838;50.742;7.158;2023-08-01T11:38:55;6.47;;;2.37;;
3643;SDS011;1838;50.742;7.158;2023-08-01T11:41:26;7.10;;;2.27;;
3643;SDS011;1838;50.742;7.158;2023-08-01T11:43:52;4.70;;;3.27;;
3643;SDS011;1838;50.742;7.158;2023-08-01T11:46:19;6.57;;;3.07;;
3643;SDS011;1838;50.742;7.158;2023-08-01T11:48:46;6.10;;;3.20;;
3643;SDS011;1838;50.742;7.158;2023-08-01T11:51:12;4.33;;;2.33;;
3643;SDS011;1838;50.742;7.158;2023-08-01T11:53:38;4.00;;;2.70;;
3643;SDS011;1838;50.742;7.158;2023-08-01T11:56:07;6.70;;;2.67;;
3643;SDS011;1838;50.742;7.158;2023-08-01T11:58:33;4.60;;;2.30;;
3643;SDS011;1838;50.742;7.158;2023-08-01T12:01:06;3.23;;;2.60;;
3643;SDS011;1838;50.742;7.158;2023-08-01T12:03:42;5.83;;;2.60;;
3643;SDS011;1838;50.742;7.158;2023-08-01T12:06:15;2.93;;;2.50;;
3643;SDS011;1838;50.742;7.158;2023-08-01T12:08:42;6.53;;;2.87;;
3643;SDS011;1838;50.742;7.158;2023-08-01T12:11:24;4.80;;;2.67;;
3643;SDS011;1838;50.742;7.158;2023-08-01T12:16:38;5.33;;;3.03;;
3643;SDS011;1838;50.742;7.158;2023-08-01T12:19:16;3.10;;;2.50;;
3643;SDS011;1838;50.742;7.158;2023-08-01T12:21:42;3.27;;;2.30;;
3643;SDS011;1838;50.742;7.158;2023-08-01T12:24:09;4.87;;;2.50;;
3643;SDS011;1838;50.742;7.158;2023-08-01T12:26:34;3.40;;;2.27;;
3643;SDS011;1838;50.742;7.158;2023-08-01T12:29:00;4.97;;;2.30;;
3643;SDS011;1838;50.742;7.158;2023-08-01T12:31:25;2.80;;;1.97;;
3643;SDS011;1838;50.742;7.158;2023-08-01T12:33:51;4.93;;;2.10;;
3643;SDS011;1838;50.742;7.158;2023-08-01T12:36:18;3.73;;;1.70;;
3643;SDS011;1838;50.742;7.158;2023-08-01T12:38:44;3.13;;;1.87;;
3643;SDS011;1838;50.742;7.158;2023-08-01T12:41:09;4.50;;;1.83;;
3643;SDS011;1838;50.742;7.158;2023-08-01T12:43:35;2.00;;;1.10;;
3643;SDS011;1838;50.742;7.158;2023-08-01T12:46:01;3.80;;;1.50;;
3643;SDS011;1838;50.742;7.158;2023-08-01T12:48:26;4.97;;;1.67;;
3643;SDS011;1838;50.742;7.158;2023-08-01T12:50:53;3.80;;;1.70;;
3643;SDS011;1838;50.742;7.158;2023-08-01T12:53:19;2.67;;;1.83;;
3643;SDS011;1838;50.742;7.158;2023-08-01T12:55:50;2.13;;;1.33;;
3643;SDS011;1838;50.742;7.158;2023-08-01T12:58:16;5.03;;;1.93;;
3643;SDS011;1838;50.742;7.158;2023-08-01T13:00:43;2.40;;;1.40;;
3643;SDS011;1838;50.742;7.158;2023-08-01T13:03:09;3.80;;;1.40;;
3643;SDS011;1838;50.742;7.158;2023-08-01T13:05:35;2.37;;;1.27;;
3643;SDS011;1838;50.742;7.158;2023-08-01T13:08:02;2.77;;;1.57;;
3643;SDS011;1838;50.742;7.158;2023-08-01T13:10:31;2.20;;;1.60;;
3643;SDS011;1838;50.742;7.158;2023-08-01T13:12:58;4.10;;;1.20;;
3643;SDS011;1838;50.742;7.158;2023-08-01T13:15:23;2.77;;;1.00;;
3643;SDS011;1838;50.742;7.158;2023-08-01T13:17:49;3.70;;;1.37;;
3643;SDS011;1838;50.742;7.158;2023-08-01T13:20:15;2.37;;;1.30;;
3643;SDS011;1838;50.742;7.158;2023-08-01T13:22:42;4.60;;;1.30;;
3643;SDS011;1838;50.742;7.158;2023-08-01T13:25:08;2.90;;;1.13;;
3643;SDS011;1838;50.742;7.158;2023-08-01T13:27:34;5.30;;;1.23;;
3643;SDS011;1838;50.742;7.158;2023-08-01T13:30:00;2.70;;;1.33;;
3643;SDS011;1838;50.742;7.158;2023-08-01T13:32:26;4.80;;;1.37;;
3643;SDS011;1838;50.742;7.158;2023-08-01T13:34:52;2.00;;;1.00;;
3643;SDS011;1838;50.742;7.158;2023-08-01T13:37:17;2.03;;;1.37;;
3643;SDS011;1838;50.742;7.158;2023-08-01T13:39:43;2.73;;;1.27;;
3643;SDS011;1838;50.742;7.158;2023-08-01T13:42:14;4.40;;;1.10;;
3643;SDS011;1838;50.742;7.158;2023-08-01T13:44:40;2.33;;;1.23;;
3643;SDS011;1838;50.742;7.158;2023-08-01T13:47:06;3.60;;;1.40;;
3643;SDS011;1838;50.742;7.158;2023-08-01T13:49:31;5.33;;;1.20;;
3643;SDS011;1838;50.742;7.158;2023-08-01T13:51:57;2.23;;;1.47;;
3643;SDS011;1838;50.742;7.158;2023-08-01T13:54:23;2.23;;;1.43;;
3643;SDS011;1838;50.742;7.158;2023-08-01T13:56:49;2.37;;;1.03;;
3643;SDS011;1838;50.742;7.158;2023-08-01T13:59:14;2.90;;;1.23;;
3643;SDS011;1838;50.742;7.158;2023-08-01T14:01:40;6.63;;;1.40;;
3643;SDS011;1838;50.742;7.158;2023-08-01T14:04:05;2.37;;;1.40;;
3643;SDS011;1838;50.742;7.158;2023-08-01T14:06:31;2.63;;;1.20;;
3643;SDS011;1838;50.742;7.158;2023-08-01T14:08:56;3.20;;;1.50;;
3643;SDS011;1838;50.742;7.158;2023-08-01T14:11:22;2.70;;;1.90;;
3643;SDS011;1838;50.742;7.158;2023-08-01T14:13:48;3.60;;;1.57;;
3643;SDS011;1838;50.742;7.158;2023-08-01T14:16:14;3.03;;;1.67;;
3643;SDS011;1838;50.742;7.158;2023-08-01T14:18:41;3.07;;;1.90;;
3643;SDS011;1838;50.742;7.158;2023-08-01T14:21:07;3.40;;;1.23;;
3643;SDS011;1838;50.742;7.158;2023-08-01T14:23:33;3.40;;;1.40;;
3643;SDS011;1838;50.742;7.158;2023-08-01T14:25:58;2.40;;;1.30;;
3643;SDS011;1838;50.742;7.158;2023-08-01T14:28:24;3.13;;;1.70;;
3643;SDS011;1838;50.742;7.158;2023-08-01T14:30:50;4.07;;;1.57;;
3643;SDS011;1838;50.742;7.158;2023-08-01T14:33:15;6.50;;;2.33;;
3643;SDS011;1838;50.742;7.158;2023-08-01T14:35:41;3.80;;;2.10;;
3643;SDS011;1838;50.742;7.158;2023-08-01T14:38:07;7.50;;;1.93;;
3643;SDS011;1838;50.742;7.158;2023-08-01T14:40:33;2.63;;;1.73;;
3643;SDS011;1838;50.742;7.158;2023-08-01T14:43:00;3.17;;;2.10;;
3643;SDS011;1838;50.742;7.158;2023-08-01T14:45:26;3.77;;;2.57;;
3643;SDS011;1838;50.742;7.158;2023-08-01T14:47:52;4.70;;;1.97;;
3643;SDS011;1838;50.742;7.158;2023-08-01T14:50:18;3.67;;;1.90;;
3643;SDS011;1838;50.742;7.158;2023-08-01T14:52:43;5.50;;;1.90;;
3643;SDS011;1838;50.742;7.158;2023-08-01T14:55:09;4.60;;;1.73;;
3643;SDS011;1838;50.742;7.158;2023-08-01T14:57:35;3.37;;;1.87;;
3643;SDS011;1838;50.742;7.158;2023-08-01T15:00:01;4.73;;;2.00;;
3643;SDS011;1838;50.742;7.158;2023-08-01T15:02:26;5.33;;;2.40;;
3643;SDS011;1838;50.742;7.158;2023-08-01T15:04:52;3.03;;;1.50;;
3643;SDS011;1838;50.742;7.158;2023-08-01T15:07:20;2.93;;;1.53;;
3643;SDS011;1838;50.742;7.158;2023-08-01T15:09:46;5.93;;;1.77;;
3643;SDS011;1838;50.742;7.158;2023-08-01T15:12:12;5.27;;;2.10;;
3643;SDS011;1838;50.742;7.158;2023-08-01T15:14:38;3.27;;;1.73;;
3643;SDS011;1838;50.742;7.158;2023-08-01T15:17:04;2.77;;;1.87;;
3643;SDS011;1838;50.742;7.158;2023-08-01T15:19:31;3.53;;;1.83;;